createdAt,value
2018-05-14T00:02:02.002Z,99.90
2018-05-14T00:04:30.458Z,99.90
2018-05-14T00:06:58.569Z,99.90
2018-05-14T00:09:29.043Z,99.90
2018-05-14T00:11:57.303Z,99.90
2018-05-14T00:14:25.620Z,99.90
2018-05-14T00:16:54.234Z,99.90
2018-05-14T00:19:22.764Z,99.90
2018-05-14T00:21:50.938Z,99.90
2018-05-14T00:24:19.158Z,99.90
2018-05-14T00:26:48.434Z,99.90
2018-05-14T00:29:17.162Z,99.90
2018-05-14T00:31:45.383Z,99.90
2018-05-14T00:34:13.560Z,99.90
2018-05-14T00:36:41.712Z,99.90
2018-05-14T00:39:10.195Z,99.90
2018-05-14T00:41:38.342Z,99.90
2018-05-14T00:44:07.286Z,99.90
2018-05-14T00:46:35.794Z,99.90
2018-05-14T00:49:05.093Z,99.90
2018-05-14T00:51:34.031Z,99.90
2018-05-14T00:54:02.257Z,99.90
2018-05-14T00:56:30.464Z,99.90
2018-05-14T00:58:58.810Z,99.90
2018-05-14T01:01:27.954Z,99.90
2018-05-14T01:03:56.440Z,99.90
2018-05-14T01:06:27.731Z,99.90
2018-05-14T01:08:56.861Z,99.90
2018-05-14T01:11:26.162Z,99.90
2018-05-14T01:13:54.761Z,99.90
2018-05-14T01:16:22.865Z,99.90
2018-05-14T01:18:51.355Z,99.90
2018-05-14T01:21:20.600Z,99.90
2018-05-14T01:23:50.270Z,99.90
2018-05-14T01:26:20.255Z,99.90
2018-05-14T01:28:48.923Z,99.90
2018-05-14T01:31:17.434Z,99.90
2018-05-14T01:33:47.210Z,99.90
2018-05-14T01:36:15.743Z,99.90
2018-05-14T01:38:45.893Z,99.90
2018-05-14T01:41:14.721Z,99.90
2018-05-14T01:43:43.531Z,99.90
2018-05-14T01:46:12.888Z,99.90
2018-05-14T01:48:41.038Z,99.90
2018-05-14T01:51:10.566Z,99.90
2018-05-14T01:53:39.159Z,99.90
2018-05-14T01:56:07.650Z,99.90
2018-05-14T01:58:36.215Z,99.90
2018-05-14T02:01:06.104Z,99.90
2018-05-14T02:03:35.857Z,99.90
2018-05-14T02:06:04.318Z,99.90
2018-05-14T02:08:33.150Z,99.90
2018-05-14T02:11:02.402Z,99.90
2018-05-14T02:13:30.809Z,99.90
2018-05-14T02:15:59.294Z,99.90
2018-05-14T02:18:27.843Z,99.90
2018-05-14T02:20:57.325Z,99.90
2018-05-14T02:23:26.811Z,99.90
2018-05-14T02:25:55.566Z,99.90
2018-05-14T02:28:23.648Z,99.90
2018-05-14T02:30:53.477Z,99.90
2018-05-14T02:33:22.828Z,99.90
2018-05-14T02:35:51.519Z,99.90
2018-05-14T02:38:20.540Z,99.90
2018-05-14T02:40:48.930Z,99.90
2018-05-14T02:43:17.805Z,99.90
2018-05-14T02:45:46.295Z,99.90
2018-05-14T02:48:14.432Z,99.90
2018-05-14T02:50:43.280Z,99.90
2018-05-14T02:53:11.668Z,99.90
2018-05-14T02:55:40.226Z,99.90
2018-05-14T02:58:09.816Z,99.90
2018-05-14T03:00:38.889Z,99.90
2018-05-14T03:03:07.561Z,99.90
2018-05-14T03:05:35.818Z,99.90
2018-05-14T03:08:04.515Z,99.90
2018-05-14T03:10:33.220Z,99.90
2018-05-14T03:13:01.339Z,99.90
2018-05-14T03:15:31.528Z,99.90
2018-05-14T03:17:59.920Z,99.90
2018-05-14T03:20:28.834Z,99.90
2018-05-14T03:22:57.258Z,99.90
2018-05-14T03:25:25.886Z,99.90
2018-05-14T03:27:55.553Z,99.90
2018-05-14T03:30:23.592Z,99.90
2018-05-14T03:32:52.381Z,99.90
2018-05-14T03:35:21.348Z,99.90
2018-05-14T03:37:49.565Z,99.90
2018-05-14T03:40:17.950Z,99.90
2018-05-14T03:42:46.839Z,99.90
2018-05-14T03:45:15.677Z,99.90
2018-05-14T03:47:44.629Z,99.90
2018-05-14T03:50:12.985Z,99.90
2018-05-14T03:52:41.293Z,99.90
2018-05-14T03:55:09.711Z,99.90
2018-05-14T03:57:37.751Z,99.90
2018-05-14T04:01:15.703Z,99.90
2018-05-14T04:03:56.159Z,99.90
2018-05-14T04:06:33.084Z,99.90
2018-05-14T04:09:02.399Z,99.90
2018-05-14T04:11:30.517Z,99.90
2018-05-14T04:13:59.543Z,99.90
2018-05-14T04:16:28.937Z,99.90
2018-05-14T04:18:58.345Z,99.90
2018-05-14T04:21:26.515Z,99.90
2018-05-14T04:23:55.262Z,99.90
2018-05-14T04:26:23.541Z,99.90
2018-05-14T04:28:52.201Z,99.90
2018-05-14T04:31:20.890Z,99.90
2018-05-14T04:33:49.027Z,99.90
2018-05-14T04:36:17.842Z,99.90
2018-05-14T04:38:46.373Z,99.90
2018-05-14T04:41:14.794Z,99.90
2018-05-14T04:43:43.253Z,99.90
2018-05-14T04:46:11.424Z,99.90
2018-05-14T04:48:39.568Z,99.90
2018-05-14T04:51:08.998Z,99.90
2018-05-14T04:53:37.080Z,99.90
2018-05-14T04:56:05.212Z,99.90
2018-05-14T04:58:33.422Z,99.90
2018-05-14T05:01:01.905Z,99.90
2018-05-14T05:03:30.075Z,99.90
2018-05-14T05:05:58.202Z,99.90
2018-05-14T05:08:26.930Z,99.90
2018-05-14T05:10:55.665Z,99.90
2018-05-14T05:13:24.350Z,99.90
2018-05-14T05:15:53.416Z,99.90
2018-05-14T05:18:22.053Z,99.90
2018-05-14T05:20:50.396Z,99.90
2018-05-14T05:23:19.658Z,99.90
2018-05-14T05:25:48.651Z,99.90
2018-05-14T05:28:17.267Z,99.90
2018-05-14T05:30:45.502Z,99.90
2018-05-14T05:33:14.057Z,99.90
2018-05-14T05:35:43.657Z,99.90
2018-05-14T05:38:11.739Z,99.90
2018-05-14T05:40:40.081Z,99.90
2018-05-14T05:43:08.291Z,99.90
2018-05-14T05:45:37.170Z,99.90
2018-05-14T05:48:05.785Z,99.90
2018-05-14T05:50:33.913Z,99.90
2018-05-14T05:53:02.235Z,99.90
2018-05-14T05:55:30.629Z,99.90
2018-05-14T05:57:58.930Z,99.90
2018-05-14T06:00:27.857Z,99.90
2018-05-14T06:02:56.217Z,99.90
2018-05-14T06:05:24.730Z,99.90
2018-05-14T06:07:53.487Z,99.90
2018-05-14T06:10:22.335Z,99.90
2018-05-14T06:12:50.567Z,99.90
2018-05-14T06:15:19.687Z,99.90
2018-05-14T06:17:47.844Z,99.90
2018-05-14T06:20:16.261Z,99.90
2018-05-14T06:22:44.935Z,99.90
2018-05-14T06:25:13.936Z,99.40
2018-05-14T06:27:41.998Z,99.40
2018-05-14T06:30:10.266Z,99.40
2018-05-14T06:32:38.661Z,99.50
2018-05-14T06:35:06.784Z,98.80
2018-05-14T06:37:35.116Z,98.60
2018-05-14T06:40:03.560Z,98.10
2018-05-14T06:42:31.758Z,98.30
2018-05-14T06:45:00.597Z,97.90
2018-05-14T06:47:28.920Z,97.90
2018-05-14T06:49:57.275Z,97.70
2018-05-14T06:52:25.665Z,97.60
2018-05-14T06:54:53.986Z,97.30
2018-05-14T06:57:22.206Z,96.10
2018-05-14T06:59:50.542Z,93.30
2018-05-14T07:02:18.812Z,91.00
2018-05-14T07:04:48.142Z,83.90
2018-05-14T07:07:17.455Z,83.80
2018-05-14T07:09:45.614Z,83.90
2018-05-14T07:12:13.734Z,81.60
2018-05-14T07:14:42.082Z,81.10
2018-05-14T07:17:10.331Z,80.90
2018-05-14T07:19:38.408Z,80.00
2018-05-14T07:22:06.932Z,79.60
2018-05-14T07:24:35.197Z,79.00
2018-05-14T07:27:03.483Z,76.70
2018-05-14T07:29:31.645Z,75.30
2018-05-14T07:31:59.818Z,75.80
2018-05-14T07:34:28.699Z,73.20
2018-05-14T07:36:56.781Z,73.20
2018-05-14T07:39:24.995Z,72.60
2018-05-14T07:41:54.177Z,74.20
2018-05-14T07:44:22.346Z,74.10
2018-05-14T07:46:50.422Z,74.50
2018-05-14T07:49:18.810Z,73.40
2018-05-14T07:51:48.697Z,70.10
2018-05-14T07:54:16.835Z,70.00
2018-05-14T07:56:44.958Z,74.20
2018-05-14T07:59:13.098Z,70.70
2018-05-14T08:01:41.266Z,72.00
2018-05-14T08:04:09.422Z,69.30
2018-05-14T08:06:37.512Z,66.40
2018-05-14T08:09:06.028Z,67.50
2018-05-14T08:11:34.243Z,67.10
2018-05-14T08:14:02.312Z,66.60
2018-05-14T08:16:30.621Z,66.40
2018-05-14T08:18:58.784Z,64.40
2018-05-14T08:21:27.083Z,66.10
2018-05-14T08:23:55.628Z,67.60
2018-05-14T08:26:24.466Z,67.10
2018-05-14T08:28:52.774Z,68.20
2018-05-14T08:31:21.907Z,66.00
2018-05-14T08:33:49.958Z,66.00
2018-05-14T08:36:18.225Z,64.40
2018-05-14T08:38:46.301Z,64.10
2018-05-14T08:41:14.435Z,64.40
2018-05-14T08:43:42.457Z,64.30
2018-05-14T08:46:10.686Z,64.20
2018-05-14T08:48:39.203Z,61.00
2018-05-14T08:51:07.287Z,63.30
2018-05-14T08:53:35.530Z,64.10
2018-05-14T08:56:05.211Z,65.50
2018-05-14T08:58:33.309Z,65.40
2018-05-14T09:01:01.381Z,66.30
2018-05-14T09:03:30.463Z,63.40
2018-05-14T09:05:58.704Z,63.30
2018-05-14T09:08:28.050Z,61.60
2018-05-14T09:10:56.625Z,62.80
2018-05-14T09:13:25.419Z,65.50
2018-05-14T09:15:53.778Z,65.40
2018-05-14T09:18:22.788Z,62.90
2018-05-14T09:20:51.817Z,65.50
2018-05-14T09:23:20.205Z,65.50
2018-05-14T09:25:49.467Z,67.00
2018-05-14T09:28:17.725Z,65.50
2018-05-14T09:30:46.662Z,64.00
2018-05-14T09:33:14.670Z,64.00
2018-05-14T09:35:42.977Z,66.40
2018-05-14T09:38:11.862Z,70.20
2018-05-14T09:40:39.950Z,70.40
2018-05-14T09:43:08.052Z,73.20
2018-05-14T09:45:36.959Z,74.10
2018-05-14T09:48:05.420Z,74.00
2018-05-14T09:50:33.650Z,73.10
2018-05-14T09:53:02.810Z,75.30
2018-05-14T09:55:30.786Z,75.20
2018-05-14T09:57:58.815Z,75.60
2018-05-14T10:00:27.453Z,75.40
2018-05-14T10:02:56.448Z,74.70
2018-05-14T10:05:25.242Z,74.00
2018-05-14T10:07:54.124Z,73.90
2018-05-14T10:10:22.914Z,74.00
2018-05-14T10:12:51.149Z,74.00
2018-05-14T10:15:19.451Z,73.00
2018-05-14T10:17:47.681Z,72.90
2018-05-14T10:20:15.833Z,72.20
2018-05-14T10:22:43.891Z,73.60
2018-05-14T10:25:12.697Z,74.40
2018-05-14T10:27:40.902Z,74.30
2018-05-14T10:30:09.138Z,74.00
2018-05-14T10:32:37.189Z,73.50
2018-05-14T10:35:05.327Z,72.30
2018-05-14T10:37:33.562Z,72.30
2018-05-14T10:40:01.975Z,72.20
2018-05-14T10:42:29.926Z,71.80
2018-05-14T10:44:58.708Z,70.70
2018-05-14T10:47:26.690Z,70.70
2018-05-14T10:49:54.937Z,70.70
2018-05-14T10:52:23.295Z,71.30
2018-05-14T10:54:52.346Z,71.60
2018-05-14T10:57:20.403Z,71.60
2018-05-14T10:59:49.135Z,70.10
2018-05-14T11:02:18.093Z,71.30
2018-05-14T11:04:46.526Z,71.20
2018-05-14T11:07:15.847Z,71.00
2018-05-14T11:09:43.837Z,70.90
2018-05-14T11:12:11.968Z,71.10
2018-05-14T11:14:40.742Z,70.40
2018-05-14T11:17:09.502Z,70.70
2018-05-14T11:19:37.823Z,70.70
2018-05-14T11:22:06.008Z,70.10
2018-05-14T11:24:34.453Z,69.10
2018-05-14T11:27:03.270Z,67.30
2018-05-14T11:29:32.852Z,67.40
2018-05-14T11:32:02.004Z,66.90
2018-05-14T11:34:30.253Z,66.90
2018-05-14T11:36:58.382Z,68.10
2018-05-14T11:39:26.600Z,68.10
2018-05-14T11:41:55.044Z,67.40
2018-05-14T11:44:24.004Z,66.00
2018-05-14T11:46:52.148Z,65.90
2018-05-14T11:49:21.017Z,66.60
2018-05-14T11:51:49.838Z,66.10
2018-05-14T11:54:17.935Z,66.10
2018-05-14T11:56:46.400Z,67.20
2018-05-14T11:59:14.577Z,66.30
2018-05-14T12:01:42.673Z,65.20
2018-05-14T12:04:10.789Z,65.70
2018-05-14T12:06:39.005Z,64.60
2018-05-14T12:09:07.331Z,64.70
2018-05-14T12:11:36.134Z,63.40
2018-05-14T12:14:04.278Z,63.40
2018-05-14T12:16:33.165Z,62.40
2018-05-14T12:19:02.232Z,62.90
2018-05-14T12:21:30.301Z,62.80
2018-05-14T12:24:00.304Z,62.40
2018-05-14T12:26:28.526Z,61.90
2018-05-14T12:28:57.494Z,61.10
2018-05-14T12:31:25.632Z,60.40
2018-05-14T12:33:53.829Z,61.00
2018-05-14T12:36:22.997Z,60.20
2018-05-14T12:38:51.168Z,60.10
2018-05-14T12:41:19.270Z,60.50
2018-05-14T12:43:47.415Z,60.00
2018-05-14T12:46:16.285Z,59.70
2018-05-14T12:48:44.608Z,59.70
2018-05-14T12:51:13.608Z,60.90
2018-05-14T12:53:41.796Z,60.90
2018-05-14T12:56:10.679Z,60.40
2018-05-14T12:58:38.691Z,60.30
2018-05-14T13:01:07.064Z,60.60
2018-05-14T13:03:35.418Z,60.80
2018-05-14T13:06:03.636Z,58.90
2018-05-14T13:08:31.796Z,59.30
2018-05-14T13:11:00.154Z,60.10
2018-05-14T13:13:30.050Z,58.30
2018-05-14T13:15:59.630Z,57.10
2018-05-14T13:18:28.609Z,57.30
2018-05-14T13:20:56.942Z,57.30
2018-05-14T13:23:25.044Z,56.30
2018-05-14T13:25:53.136Z,56.50
2018-05-14T13:28:21.543Z,56.10
2018-05-14T13:30:50.030Z,55.80
2018-05-14T13:33:18.411Z,55.80
2018-05-14T13:35:47.291Z,56.80
2018-05-14T13:38:16.169Z,55.60
2018-05-14T13:40:44.243Z,55.60
2018-05-14T13:43:12.708Z,55.50
2018-05-14T13:45:40.892Z,56.70
2018-05-14T13:48:09.482Z,55.90
2018-05-14T13:50:37.627Z,54.90
2018-05-14T13:53:05.920Z,54.10
2018-05-14T13:55:34.245Z,53.80
2018-05-14T13:58:02.371Z,53.20
2018-05-14T14:00:30.724Z,52.20
2018-05-14T14:02:59.756Z,51.10
2018-05-14T14:05:28.136Z,51.10
2018-05-14T14:07:56.473Z,51.30
2018-05-14T14:10:24.660Z,52.30
2018-05-14T14:12:53.381Z,52.40
2018-05-14T14:15:22.321Z,53.20
2018-05-14T14:17:50.424Z,53.10
2018-05-14T14:20:18.528Z,53.10
2018-05-14T14:22:47.598Z,53.60
2018-05-14T14:25:16.704Z,53.40
2018-05-14T14:27:45.494Z,53.10
2018-05-14T14:30:14.487Z,52.80
2018-05-14T14:32:43.685Z,52.90
2018-05-14T14:35:13.411Z,52.90
2018-05-14T14:37:42.435Z,52.40
2018-05-14T14:40:10.708Z,52.40
2018-05-14T14:42:39.023Z,52.40
2018-05-14T14:45:08.061Z,52.90
2018-05-14T14:47:36.104Z,52.80
2018-05-14T14:50:05.141Z,53.50
2018-05-14T14:52:33.338Z,53.50
2018-05-14T14:55:01.426Z,54.60
2018-05-14T14:57:29.549Z,54.00
2018-05-14T14:59:57.939Z,53.90
2018-05-14T15:02:27.677Z,54.60
2018-05-14T15:04:55.931Z,54.60
2018-05-14T15:07:24.108Z,54.40
2018-05-14T15:09:52.218Z,54.80
2018-05-14T15:12:20.549Z,53.50
2018-05-14T15:14:48.628Z,52.50
2018-05-14T15:17:16.904Z,50.40
2018-05-14T15:19:44.992Z,51.00
2018-05-14T15:22:13.248Z,51.70
2018-05-14T15:24:41.857Z,52.50
2018-05-14T15:27:10.818Z,51.60
2018-05-14T15:29:38.988Z,51.50
2018-05-14T15:32:07.900Z,51.40
2018-05-14T15:34:36.392Z,51.30
2018-05-14T15:37:05.558Z,50.70
2018-05-14T15:39:33.877Z,50.30
2018-05-14T15:42:02.914Z,49.50
2018-05-14T15:44:32.118Z,49.50
2018-05-14T15:47:00.354Z,49.70
2018-05-14T15:49:29.313Z,50.70
2018-05-14T15:51:57.365Z,50.60
2018-05-14T15:54:25.744Z,50.40
2018-05-14T15:56:54.034Z,50.60
2018-05-14T15:59:22.405Z,50.70
2018-05-14T16:01:50.671Z,50.10
2018-05-14T16:04:19.482Z,50.80
2018-05-14T16:06:47.702Z,50.70
2018-05-14T16:09:16.967Z,50.30
2018-05-14T16:11:45.853Z,49.30
2018-05-14T16:14:14.087Z,49.30
2018-05-14T16:16:42.166Z,48.50
2018-05-14T16:19:11.226Z,46.90
2018-05-14T16:21:41.289Z,47.10
2018-05-14T16:24:10.187Z,47.00
2018-05-14T16:26:38.595Z,47.40
2018-05-14T16:29:06.877Z,47.60
2018-05-14T16:31:35.828Z,47.50
2018-05-14T16:34:04.092Z,47.50
2018-05-14T16:36:32.369Z,48.00
2018-05-14T16:39:00.955Z,48.70
2018-05-14T16:41:29.142Z,48.40
2018-05-14T16:43:57.301Z,49.20
2018-05-14T16:46:25.682Z,49.60
2018-05-14T16:48:53.956Z,49.30
2018-05-14T16:51:22.265Z,49.80
2018-05-14T16:53:51.223Z,49.90
2018-05-14T16:56:20.272Z,49.90
2018-05-14T16:58:49.154Z,50.10
2018-05-14T17:01:18.168Z,50.70
2018-05-14T17:03:47.705Z,50.70
2018-05-14T17:06:16.153Z,51.60
2018-05-14T17:08:44.390Z,51.50
2018-05-14T17:11:12.506Z,51.40
2018-05-14T17:13:41.088Z,51.90
2018-05-14T17:16:09.840Z,51.50
2018-05-14T17:18:38.180Z,51.60
2018-05-14T17:21:06.868Z,51.50
2018-05-14T17:23:35.369Z,52.00
2018-05-14T17:26:04.131Z,49.40
2018-05-14T17:28:32.506Z,49.30
2018-05-14T17:31:00.779Z,50.30
2018-05-14T17:33:29.184Z,49.60
2018-05-14T17:35:57.547Z,49.80
2018-05-14T17:38:27.626Z,49.90
2018-05-14T17:40:57.993Z,49.60
2018-05-14T17:43:26.381Z,50.50
2018-05-14T17:45:54.635Z,50.50
2018-05-14T17:48:23.976Z,50.30
2018-05-14T17:50:53.538Z,50.80
2018-05-14T17:53:22.026Z,50.70
2018-05-14T17:55:51.338Z,50.20
2018-05-14T17:58:19.634Z,50.20
2018-05-14T18:00:48.619Z,50.30
2018-05-14T18:03:17.227Z,50.20
2018-05-14T18:05:45.361Z,50.40
2018-05-14T18:08:13.942Z,50.50
2018-05-14T18:10:42.774Z,49.60
2018-05-14T18:13:10.929Z,49.30
2018-05-14T18:15:40.727Z,48.90
2018-05-14T18:18:09.258Z,48.90
2018-05-14T18:20:37.995Z,48.20
2018-05-14T18:23:14.128Z,48.30
2018-05-14T18:25:48.384Z,48.40
2018-05-14T18:28:17.574Z,47.90
2018-05-14T18:30:46.228Z,47.80
2018-05-14T18:33:15.116Z,47.40
2018-05-14T18:35:43.645Z,47.40
2018-05-14T18:38:11.830Z,47.40
2018-05-14T18:40:40.356Z,47.80
2018-05-14T18:43:08.699Z,47.70
2018-05-14T18:45:37.941Z,47.80
2018-05-14T18:48:06.518Z,47.80
2018-05-14T18:50:35.098Z,47.60
2018-05-14T18:53:04.042Z,47.60
2018-05-14T18:55:32.936Z,48.60
2018-05-14T18:58:02.575Z,48.40
2018-05-14T19:00:31.024Z,48.40
2018-05-14T19:02:59.559Z,48.80
2018-05-14T19:05:27.885Z,48.50
2018-05-14T19:07:56.117Z,48.90
2018-05-14T19:10:28.910Z,49.10
2018-05-14T19:12:58.310Z,49.70
2018-05-14T19:15:32.171Z,50.10
2018-05-14T19:18:01.189Z,50.00
2018-05-14T19:20:29.408Z,50.20
2018-05-14T19:23:02.757Z,50.40
2018-05-14T19:25:30.940Z,50.40
2018-05-14T19:28:03.636Z,50.60
2018-05-14T19:30:31.879Z,50.80
2018-05-14T19:33:00.299Z,51.10
2018-05-14T19:35:34.582Z,51.70
2018-05-14T19:38:02.942Z,51.60
2018-05-14T19:41:03.774Z,51.90
2018-05-14T19:43:31.946Z,52.00
2018-05-14T19:46:00.108Z,52.20
2018-05-14T19:48:28.312Z,52.60
2018-05-14T19:50:56.714Z,52.70
2018-05-14T19:53:24.773Z,53.10
2018-05-14T19:55:52.912Z,53.00
2018-05-14T19:58:21.230Z,53.20
2018-05-14T20:00:49.311Z,53.50
2018-05-14T20:03:17.421Z,53.60
2018-05-14T20:05:46.326Z,53.60
2018-05-14T20:08:14.498Z,53.60
2018-05-14T20:10:42.660Z,53.60
2018-05-14T20:13:10.656Z,53.70
2018-05-14T20:15:41.601Z,53.80
2018-05-14T20:18:09.675Z,53.80
2018-05-14T20:20:38.129Z,53.50
2018-05-14T20:23:06.487Z,53.70
2018-05-14T20:25:34.584Z,54.00
2018-05-14T20:28:02.831Z,53.80
2018-05-14T20:30:30.931Z,53.70
2018-05-14T20:32:59.009Z,53.80
2018-05-14T20:35:28.635Z,53.50
2018-05-14T20:37:56.787Z,53.80
2018-05-14T20:40:25.042Z,54.00
2018-05-14T20:42:53.209Z,53.90
2018-05-14T20:45:22.159Z,54.40
2018-05-14T20:47:51.902Z,54.50
2018-05-14T20:50:19.954Z,54.90
2018-05-14T20:52:48.837Z,55.40
2018-05-14T20:55:17.730Z,55.60
2018-05-14T20:57:46.613Z,55.80
2018-05-14T21:00:14.623Z,55.80
2018-05-14T21:02:42.842Z,55.70
2018-05-14T21:05:12.112Z,56.00
2018-05-14T21:07:40.474Z,56.00
2018-05-14T21:10:08.719Z,56.10
2018-05-14T21:12:36.832Z,56.50
2018-05-14T21:15:04.958Z,56.60
2018-05-14T21:17:33.184Z,56.70
2018-05-14T21:20:01.524Z,57.40
2018-05-14T21:22:30.286Z,57.00
2018-05-14T21:24:59.196Z,57.10
2018-05-14T21:27:28.935Z,57.30
2018-05-14T21:29:57.227Z,57.30
2018-05-14T21:32:26.116Z,57.60
2018-05-14T21:34:54.337Z,57.60
2018-05-14T21:37:23.136Z,58.10
2018-05-14T21:39:52.478Z,59.00
2018-05-14T21:42:20.495Z,58.90
2018-05-14T21:44:49.896Z,59.50
2018-05-14T21:47:19.046Z,59.40
2018-05-14T21:49:47.023Z,59.30
2018-05-14T21:52:15.238Z,59.60
2018-05-14T21:54:43.674Z,60.00
2018-05-14T21:57:11.843Z,60.00
2018-05-14T21:59:39.916Z,60.70
2018-05-14T22:02:07.992Z,60.50
2018-05-14T22:04:36.067Z,61.20
2018-05-14T22:07:04.549Z,62.20
2018-05-14T22:09:32.897Z,61.70
2018-05-14T22:12:00.894Z,61.70
2018-05-14T22:14:29.235Z,62.30
2018-05-14T22:16:57.619Z,62.60
2018-05-14T22:19:25.656Z,62.20
2018-05-14T22:21:54.558Z,62.30
2018-05-14T22:24:23.432Z,62.60
2018-05-14T22:26:52.214Z,62.70
2018-05-14T22:29:20.226Z,62.70
2018-05-14T22:31:48.363Z,63.00
2018-05-14T22:34:17.666Z,63.20
2018-05-14T22:36:46.919Z,63.60
2018-05-14T22:39:15.190Z,63.60
2018-05-14T22:41:44.744Z,63.70
2018-05-14T22:44:12.948Z,64.10
2018-05-14T22:46:41.049Z,64.20
2018-05-14T22:49:10.855Z,64.50
2018-05-14T22:51:39.433Z,64.50
2018-05-14T22:54:08.021Z,65.10
2018-05-14T22:56:36.158Z,65.20
2018-05-14T22:59:05.356Z,65.20
2018-05-14T23:01:33.785Z,65.20
2018-05-14T23:04:01.950Z,65.20
2018-05-14T23:06:31.085Z,65.70
2018-05-14T23:09:00.456Z,65.60
2018-05-14T23:11:28.609Z,65.60
2018-05-14T23:13:57.574Z,65.30
2018-05-14T23:16:25.729Z,65.60
2018-05-14T23:18:54.492Z,65.70
2018-05-14T23:21:23.028Z,65.40
2018-05-14T23:23:51.168Z,66.30
2018-05-14T23:26:20.111Z,67.00
2018-05-14T23:28:48.974Z,67.70
2018-05-14T23:31:17.615Z,67.60
2018-05-14T23:33:45.723Z,67.30
2018-05-14T23:36:14.014Z,67.80
2018-05-14T23:38:42.517Z,68.00
2018-05-14T23:41:11.403Z,68.30
2018-05-14T23:43:39.660Z,68.60
2018-05-14T23:46:08.062Z,68.80
2018-05-14T23:48:36.285Z,69.70
2018-05-14T23:51:05.534Z,69.80
2018-05-14T23:53:33.611Z,70.10
2018-05-14T23:56:02.409Z,71.30
2018-05-14T23:58:30.484Z,71.40
